This is the latest recevied weather packets stored in our database for station/object W2CJS. If no packets are shown the sender has not sent any weather packets the latest 10 day(s).
| Time | Temp. | Humidity | Pressure | Rain* | Wind** | Luminosity | Snow |
|---|---|---|---|---|---|---|---|
| 1777887603 | 6.67° C | 87% | 1005.7 hPa | 0 mm | - | - | - |
| 1777887024 | 6.67° C | 87% | 1005.7 hPa | 0 mm | - | - | - |
| 1777882803 | 6.11° C | 90% | 1005.9 hPa | 0 mm | - | - | - |
| 1777881603 | 6.11° C | 91% | 1006 hPa | 0 mm | - | - | - |
| 1777879803 | 6.67° C | 89% | 1006.2 hPa | 0.25 mm | - | - | - |
| 1777879203 | 6.67° C | 89% | 1006.2 hPa | 0.25 mm | - | - | - |
| 1777875003 | 6.67° C | 89% | 1006.5 hPa | 0.25 mm | - | - | - |
| 1777869603 | 5° C | 91% | 1007 hPa | 0.25 mm | - | - | - |
| 1777869003 | 5° C | 90% | 1007.1 hPa | 0.51 mm | - | - | - |
| 1777865403 | 5° C | 87% | 1007.4 hPa | 0.25 mm | - | - | - |
| 1777859403 | 7.22° C | 59% | 1007.7 hPa | 0 mm | - | - | - |
| 1777856403 | 7.22° C | 56% | 1007.6 hPa | 0 mm | - | - | - |
| 1777854003 | 7.22° C | 47% | 1007.5 hPa | 0 mm | - | - | - |
| 1777849803 | 8.33° C | 42% | 1007.1 hPa | 0 mm | - | - | - |
| 1777849203 | 8.89° C | 40% | 1007 hPa | 0 mm | - | - | - |
| 1777840224 | 9.44° C | 39% | 1006.6 hPa | 0 mm | - | - | - |
| 1777836603 | 7.78° C | 45% | 1007.3 hPa | 0 mm | - | - | - |
| 1777835403 | 7.78° C | 45% | 1007.6 hPa | 0 mm | - | - | - |
| 1777834824 | 7.78° C | 47% | 1007.8 hPa | 0 mm | - | - | - |
| 1777834224 | 7.78° C | 47% | 1007.7 hPa | 0 mm | - | - | - |
| 1777833603 | 7.78° C | 45% | 1007.8 hPa | 0 mm | - | - | - |
| 1777833003 | 7.78° C | 47% | 1007.8 hPa | 0 mm | - | - | - |
| 1777830003 | 7.22° C | 46% | 1007.9 hPa | 0 mm | - | - | - |
| 1777828824 | 6.67° C | 52% | 1008 hPa | 0 mm | - | - | - |
| 1777825224 | 6.11° C | 51% | 1008.5 hPa | 0 mm | - | - | - |
* Rain latest hour (hover to see other rain measurements)
** Current wind speed in m/s (hover to see current wind gust speed)